sensor_id;sensor_type;location;lat;lon;timestamp;pressure;altitude;pressure_sealevel;temperature;humidity
23303;BME280;11820;48.738;9.092;2022-08-19T00:02:23;95883.66;;;21.70;100.00
23303;BME280;11820;48.738;9.092;2022-08-19T00:04:48;95885.69;;;21.83;100.00
23303;BME280;11820;48.738;9.092;2022-08-19T00:07:18;95881.94;;;21.94;100.00
23303;BME280;11820;48.738;9.092;2022-08-19T00:09:44;95875.13;;;21.88;100.00
23303;BME280;11820;48.738;9.092;2022-08-19T00:12:09;95875.06;;;21.98;100.00
23303;BME280;11820;48.738;9.092;2022-08-19T00:14:35;95890.59;;;21.99;100.00
23303;BME280;11820;48.738;9.092;2022-08-19T00:17:02;95892.34;;;21.70;100.00
23303;BME280;11820;48.738;9.092;2022-08-19T00:19:28;95892.13;;;21.62;100.00
23303;BME280;11820;48.738;9.092;2022-08-19T00:21:53;95896.28;;;21.73;100.00
23303;BME280;11820;48.738;9.092;2022-08-19T00:24:21;95890.00;;;21.54;100.00
23303;BME280;11820;48.738;9.092;2022-08-19T00:26:47;95888.09;;;21.79;100.00
23303;BME280;11820;48.738;9.092;2022-08-19T00:29:15;95887.81;;;21.76;100.00
23303;BME280;11820;48.738;9.092;2022-08-19T00:31:41;95881.59;;;21.62;100.00
23303;BME280;11820;48.738;9.092;2022-08-19T00:34:07;95875.78;;;21.65;100.00
23303;BME280;11820;48.738;9.092;2022-08-19T00:36:33;95869.97;;;21.68;100.00
23303;BME280;11820;48.738;9.092;2022-08-19T00:38:58;95860.53;;;21.57;100.00
23303;BME280;11820;48.738;9.092;2022-08-19T00:41:24;95858.69;;;21.62;100.00
23303;BME280;11820;48.738;9.092;2022-08-19T00:46:34;95851.59;;;21.63;100.00
23303;BME280;11820;48.738;9.092;2022-08-19T00:49:13;95853.16;;;21.59;100.00
23303;BME280;11820;48.738;9.092;2022-08-19T00:51:41;95864.78;;;21.48;100.00
23303;BME280;11820;48.738;9.092;2022-08-19T00:54:08;95862.59;;;21.70;100.00
23303;BME280;11820;48.738;9.092;2022-08-19T00:56:34;95877.38;;;21.56;100.00
23303;BME280;11820;48.738;9.092;2022-08-19T00:59:01;95861.28;;;21.67;100.00
23303;BME280;11820;48.738;9.092;2022-08-19T01:01:27;95867.84;;;21.70;100.00
23303;BME280;11820;48.738;9.092;2022-08-19T01:03:52;95878.34;;;21.75;100.00
23303;BME280;11820;48.738;9.092;2022-08-19T01:06:18;95879.22;;;21.55;100.00
23303;BME280;11820;48.738;9.092;2022-08-19T01:08:44;95875.75;;;21.70;100.00
23303;BME280;11820;48.738;9.092;2022-08-19T01:11:09;95873.66;;;21.67;100.00
23303;BME280;11820;48.738;9.092;2022-08-19T01:13:35;95870.28;;;21.61;100.00
23303;BME280;11820;48.738;9.092;2022-08-19T01:16:04;95867.81;;;21.75;100.00
23303;BME280;11820;48.738;9.092;2022-08-19T01:18:32;95859.94;;;21.75;100.00
23303;BME280;11820;48.738;9.092;2022-08-19T01:21:07;95860.44;;;21.77;100.00
23303;BME280;11820;48.738;9.092;2022-08-19T01:23:34;95856.31;;;21.66;100.00
23303;BME280;11820;48.738;9.092;2022-08-19T01:26:14;95862.56;;;21.75;100.00
23303;BME280;11820;48.738;9.092;2022-08-19T01:28:40;95871.31;;;21.60;100.00
23303;BME280;11820;48.738;9.092;2022-08-19T01:31:10;95862.09;;;21.68;100.00
23303;BME280;11820;48.738;9.092;2022-08-19T01:33:36;95863.19;;;21.62;100.00
23303;BME280;11820;48.738;9.092;2022-08-19T01:36:12;95858.69;;;21.57;100.00
23303;BME280;11820;48.738;9.092;2022-08-19T01:38:41;95857.66;;;21.53;100.00
23303;BME280;11820;48.738;9.092;2022-08-19T01:41:08;95848.97;;;21.58;100.00
23303;BME280;11820;48.738;9.092;2022-08-19T01:43:34;95850.25;;;21.65;100.00
23303;BME280;11820;48.738;9.092;2022-08-19T01:45:59;95855.38;;;21.37;100.00
23303;BME280;11820;48.738;9.092;2022-08-19T01:48:25;95856.31;;;21.61;100.00
23303;BME280;11820;48.738;9.092;2022-08-19T01:50:51;95851.59;;;21.63;100.00
23303;BME280;11820;48.738;9.092;2022-08-19T01:53:17;95845.25;;;21.59;100.00
23303;BME280;11820;48.738;9.092;2022-08-19T01:55:43;95844.78;;;21.47;100.00
23303;BME280;11820;48.738;9.092;2022-08-19T01:58:19;95851.59;;;21.58;100.00
23303;BME280;11820;48.738;9.092;2022-08-19T02:00:46;95858.69;;;21.57;100.00
23303;BME280;11820;48.738;9.092;2022-08-19T02:03:12;95860.09;;;21.40;100.00
23303;BME280;11820;48.738;9.092;2022-08-19T02:05:38;95872.44;;;21.39;100.00
23303;BME280;11820;48.738;9.092;2022-08-19T02:08:04;95869.00;;;21.44;100.00
23303;BME280;11820;48.738;9.092;2022-08-19T02:10:30;95867.94;;;21.50;100.00
23303;BME280;11820;48.738;9.092;2022-08-19T02:12:55;95864.19;;;21.61;100.00
23303;BME280;11820;48.738;9.092;2022-08-19T02:15:21;95862.94;;;21.43;100.00
23303;BME280;11820;48.738;9.092;2022-08-19T02:17:47;95853.78;;;21.41;100.00
23303;BME280;11820;48.738;9.092;2022-08-19T02:20:13;95851.72;;;21.33;100.00
23303;BME280;11820;48.738;9.092;2022-08-19T02:22:40;95852.22;;;21.35;100.00
23303;BME280;11820;48.738;9.092;2022-08-19T02:25:09;95861.69;;;21.36;100.00
23303;BME280;11820;48.738;9.092;2022-08-19T02:27:35;95852.78;;;21.27;100.00
23303;BME280;11820;48.738;9.092;2022-08-19T02:30:00;95852.28;;;21.20;100.00
23303;BME280;11820;48.738;9.092;2022-08-19T02:32:26;95854.16;;;21.10;100.00
23303;BME280;11820;48.738;9.092;2022-08-19T02:34:52;95860.16;;;21.25;100.00
23303;BME280;11820;48.738;9.092;2022-08-19T02:37:17;95860.34;;;21.38;100.00
23303;BME280;11820;48.738;9.092;2022-08-19T02:40:11;95859.03;;;21.41;100.00
23303;BME280;11820;48.738;9.092;2022-08-19T02:42:37;95856.66;;;21.39;100.00
23303;BME280;11820;48.738;9.092;2022-08-19T02:45:03;95856.22;;;21.18;100.00
23303;BME280;11820;48.738;9.092;2022-08-19T02:47:30;95856.00;;;21.14;100.00
23303;BME280;11820;48.738;9.092;2022-08-19T02:49:56;95855.34;;;21.42;100.00
23303;BME280;11820;48.738;9.092;2022-08-19T02:52:21;95851.75;;;21.23;100.00
23303;BME280;11820;48.738;9.092;2022-08-19T02:54:48;95848.09;;;21.14;100.00
23303;BME280;11820;48.738;9.092;2022-08-19T02:57:14;95842.56;;;21.21;100.00
23303;BME280;11820;48.738;9.092;2022-08-19T02:59:39;95849.16;;;21.13;100.00
23303;BME280;11820;48.738;9.092;2022-08-19T03:02:05;95848.91;;;21.05;100.00
23303;BME280;11820;48.738;9.092;2022-08-19T03:04:30;95843.06;;;21.18;100.00
23303;BME280;11820;48.738;9.092;2022-08-19T03:06:55;95838.16;;;21.01;100.00
23303;BME280;11820;48.738;9.092;2022-08-19T03:09:21;95844.44;;;21.05;100.00
23303;BME280;11820;48.738;9.092;2022-08-19T03:11:46;95845.28;;;20.96;100.00
23303;BME280;11820;48.738;9.092;2022-08-19T03:14:12;95852.38;;;20.90;100.00
23303;BME280;11820;48.738;9.092;2022-08-19T03:16:46;95852.38;;;20.90;100.00
23303;BME280;11820;48.738;9.092;2022-08-19T03:19:13;95861.28;;;20.99;100.00
23303;BME280;11820;48.738;9.092;2022-08-19T03:21:39;95859.19;;;21.01;100.00
23303;BME280;11820;48.738;9.092;2022-08-19T03:24:07;95855.03;;;20.90;100.00
23303;BME280;11820;48.738;9.092;2022-08-19T03:26:33;95854.69;;;21.12;100.00
23303;BME280;11820;48.738;9.092;2022-08-19T03:29:03;95854.72;;;21.02;100.00
23303;BME280;11820;48.738;9.092;2022-08-19T03:31:28;95850.53;;;20.96;100.00
23303;BME280;11820;48.738;9.092;2022-08-19T03:33:53;95855.75;;;21.06;100.00
23303;BME280;11820;48.738;9.092;2022-08-19T03:36:22;95852.94;;;20.87;100.00
23303;BME280;11820;48.738;9.092;2022-08-19T03:38:50;95854.50;;;20.88;100.00
23303;BME280;11820;48.738;9.092;2022-08-19T03:41:21;95854.22;;;21.00;100.00
23303;BME280;11820;48.738;9.092;2022-08-19T03:43:47;95861.06;;;20.86;100.00
23303;BME280;11820;48.738;9.092;2022-08-19T03:46:18;95857.66;;;20.90;100.00
23303;BME280;11820;48.738;9.092;2022-08-19T03:48:46;95852.13;;;20.77;100.00
23303;BME280;11820;48.738;9.092;2022-08-19T03:51:21;95846.09;;;20.81;100.00
23303;BME280;11820;48.738;9.092;2022-08-19T03:53:47;95849.50;;;20.82;100.00
23303;BME280;11820;48.738;9.092;2022-08-19T03:56:13;95853.41;;;20.79;100.00
23303;BME280;11820;48.738;9.092;2022-08-19T03:58:40;95862.94;;;20.85;100.00
23303;BME280;11820;48.738;9.092;2022-08-19T04:01:11;95869.47;;;20.98;100.00
23303;BME280;11820;48.738;9.092;2022-08-19T04:03:38;95865.53;;;20.95;100.00
23303;BME280;11820;48.738;9.092;2022-08-19T04:08:41;95872.06;;;21.03;100.00
23303;BME280;11820;48.738;9.092;2022-08-19T04:11:09;95869.47;;;20.98;100.00
23303;BME280;11820;48.738;9.092;2022-08-19T04:13:35;95872.66;;;20.70;100.00
23303;BME280;11820;48.738;9.092;2022-08-19T04:16:00;95866.88;;;20.73;100.00
23303;BME280;11820;48.738;9.092;2022-08-19T04:18:25;95877.13;;;20.69;100.00
23303;BME280;11820;48.738;9.092;2022-08-19T04:20:51;95869.22;;;20.74;100.00
23303;BME280;11820;48.738;9.092;2022-08-19T04:23:17;95863.44;;;20.72;100.00
23303;BME280;11820;48.738;9.092;2022-08-19T04:25:43;95858.44;;;20.86;100.00
23303;BME280;11820;48.738;9.092;2022-08-19T04:28:11;95862.38;;;20.88;100.00
23303;BME280;11820;48.738;9.092;2022-08-19T04:30:42;95862.13;;;20.75;100.00
23303;BME280;11820;48.738;9.092;2022-08-19T04:33:09;95860.84;;;20.52;100.00
23303;BME280;11820;48.738;9.092;2022-08-19T04:35:39;95865.03;;;20.63;100.00
23303;BME280;11820;48.738;9.092;2022-08-19T04:38:05;95856.84;;;20.80;100.00
23303;BME280;11820;48.738;9.092;2022-08-19T04:40:30;95857.94;;;20.64;100.00
23303;BME280;11820;48.738;9.092;2022-08-19T04:43:14;95857.69;;;20.65;100.00
23303;BME280;11820;48.738;9.092;2022-08-19T04:45:41;95865.84;;;20.49;100.00
23303;BME280;11820;48.738;9.092;2022-08-19T04:48:07;95870.56;;;20.52;100.00
23303;BME280;11820;48.738;9.092;2022-08-19T04:50:33;95861.38;;;20.59;100.00
23303;BME280;11820;48.738;9.092;2022-08-19T04:52:58;95862.16;;;20.60;100.00
23303;BME280;11820;48.738;9.092;2022-08-19T04:55:24;95865.03;;;20.48;100.00
23303;BME280;11820;48.738;9.092;2022-08-19T04:57:50;95867.66;;;20.63;100.00
23303;BME280;11820;48.738;9.092;2022-08-19T05:00:16;95872.38;;;20.66;100.00
23303;BME280;11820;48.738;9.092;2022-08-19T05:02:41;95876.09;;;20.55;100.00
23303;BME280;11820;48.738;9.092;2022-08-19T05:05:07;95870.34;;;20.33;100.00
23303;BME280;11820;48.738;9.092;2022-08-19T05:07:33;95870.31;;;20.48;100.00
23303;BME280;11820;48.738;9.092;2022-08-19T05:09:59;95876.63;;;20.42;100.00
23303;BME280;11820;48.738;9.092;2022-08-19T05:12:25;95880.28;;;20.26;100.00
23303;BME280;11820;48.738;9.092;2022-08-19T05:14:50;95888.19;;;20.41;100.00
23303;BME280;11820;48.738;9.092;2022-08-19T05:17:16;95888.94;;;20.57;100.00
23303;BME280;11820;48.738;9.092;2022-08-19T05:19:42;95895.50;;;20.69;100.00
23303;BME280;11820;48.738;9.092;2022-08-19T05:22:26;95901.84;;;20.63;100.00
23303;BME280;11820;48.738;9.092;2022-08-19T05:25:00;95914.44;;;20.66;100.00
23303;BME280;11820;48.738;9.092;2022-08-19T05:27:26;95927.56;;;20.71;100.00
23303;BME280;11820;48.738;9.092;2022-08-19T05:29:51;95942.03;;;20.54;100.00
23303;BME280;11820;48.738;9.092;2022-08-19T05:32:17;95948.06;;;20.49;100.00
23303;BME280;11820;48.738;9.092;2022-08-19T05:34:42;95956.50;;;20.56;100.00
23303;BME280;11820;48.738;9.092;2022-08-19T05:37:08;95969.91;;;20.70;100.00
23303;BME280;11820;48.738;9.092;2022-08-19T05:39:36;95960.19;;;20.65;100.00
23303;BME280;11820;48.738;9.092;2022-08-19T05:42:04;95968.59;;;20.67;100.00
23303;BME280;11820;48.738;9.092;2022-08-19T05:44:33;95958.06;;;20.52;100.00
23303;BME280;11820;48.738;9.092;2022-08-19T05:47:00;95958.06;;;20.42;100.00
23303;BME280;11820;48.738;9.092;2022-08-19T05:49:28;95949.91;;;20.39;100.00
23303;BME280;11820;48.738;9.092;2022-08-19T05:51:54;95955.97;;;20.44;100.00
23303;BME280;11820;48.738;9.092;2022-08-19T05:54:21;95954.38;;;20.53;100.00
23303;BME280;11820;48.738;9.092;2022-08-19T05:56:49;95952.31;;;20.60;100.00
23303;BME280;11820;48.738;9.092;2022-08-19T05:59:16;95949.16;;;20.63;100.00
23303;BME280;11820;48.738;9.092;2022-08-19T06:01:44;95950.72;;;20.59;100.00
23303;BME280;11820;48.738;9.092;2022-08-19T06:04:11;95949.69;;;20.55;100.00
23303;BME280;11820;48.738;9.092;2022-08-19T06:06:38;95954.94;;;20.55;100.00
23303;BME280;11820;48.738;9.092;2022-08-19T06:09:05;95953.84;;;20.51;100.00
23303;BME280;11820;48.738;9.092;2022-08-19T06:13:57;95958.06;;;20.52;100.00
23303;BME280;11820;48.738;9.092;2022-08-19T06:16:25;95954.41;;;20.63;100.00
23303;BME280;11820;48.738;9.092;2022-08-19T06:18:53;95953.34;;;20.64;100.00
23303;BME280;11820;48.738;9.092;2022-08-19T06:21:20;95949.13;;;20.68;100.00
23303;BME280;11820;48.738;9.092;2022-08-19T06:23:47;95943.88;;;20.68;100.00
23303;BME280;11820;48.738;9.092;2022-08-19T06:26:13;95947.81;;;20.81;100.00
23303;BME280;11820;48.738;9.092;2022-08-19T06:28:39;95948.34;;;20.38;100.00
23303;BME280;11820;48.738;9.092;2022-08-19T06:31:18;95946.50;;;20.53;100.00
23303;BME280;11820;48.738;9.092;2022-08-19T06:33:45;95946.50;;;20.73;100.00
23303;BME280;11820;48.738;9.092;2022-08-19T06:36:25;95948.88;;;20.55;100.00
23303;BME280;11820;48.738;9.092;2022-08-19T06:38:53;95942.81;;;20.74;100.00
23303;BME280;11820;48.738;9.092;2022-08-19T06:41:19;95946.50;;;20.73;100.00
23303;BME280;11820;48.738;9.092;2022-08-19T06:43:44;95949.13;;;20.78;100.00
23303;BME280;11820;48.738;9.092;2022-08-19T06:46:12;95954.63;;;20.67;100.00
23303;BME280;11820;48.738;9.092;2022-08-19T06:48:38;95958.88;;;20.68;100.00
23303;BME280;11820;48.738;9.092;2022-08-19T06:51:03;95960.22;;;20.85;100.00
23303;BME280;11820;48.738;9.092;2022-08-19T06:53:31;95961.50;;;20.88;100.00
23303;BME280;11820;48.738;9.092;2022-08-19T06:55:56;95960.69;;;21.02;100.00
23303;BME280;11820;48.738;9.092;2022-08-19T06:58:25;95962.53;;;20.72;100.00
23303;BME280;11820;48.738;9.092;2022-08-19T07:00:51;95964.13;;;20.83;100.00
23303;BME280;11820;48.738;9.092;2022-08-19T07:03:16;95964.38;;;20.76;100.00
23303;BME280;11820;48.738;9.092;2022-08-19T07:05:43;95964.94;;;20.83;100.00
23303;BME280;11820;48.738;9.092;2022-08-19T07:08:08;95972.53;;;20.85;100.00
23303;BME280;11820;48.738;9.092;2022-08-19T07:10:35;95969.91;;;20.70;100.00
23303;BME280;11820;48.738;9.092;2022-08-19T07:13:02;95972.00;;;20.63;100.00
23303;BME280;11820;48.738;9.092;2022-08-19T07:15:28;95979.09;;;20.72;100.00
23303;BME280;11820;48.738;9.092;2022-08-19T07:17:55;95972.78;;;20.63;100.00
23303;BME280;11820;48.738;9.092;2022-08-19T07:20:20;95978.03;;;20.78;100.00
23303;BME280;11820;48.738;9.092;2022-08-19T07:22:45;95977.03;;;20.84;100.00
23303;BME280;11820;48.738;9.092;2022-08-19T07:25:11;95985.97;;;20.88;100.00
23303;BME280;11820;48.738;9.092;2022-08-19T07:27:38;95978.59;;;20.80;100.00
23303;BME280;11820;48.738;9.092;2022-08-19T07:30:04;95979.38;;;20.71;100.00
23303;BME280;11820;48.738;9.092;2022-08-19T07:32:30;95976.97;;;20.79;100.00
23303;BME280;11820;48.738;9.092;2022-08-19T07:34:55;95981.19;;;20.65;100.00
23303;BME280;11820;48.738;9.092;2022-08-19T07:37:21;95976.22;;;20.69;100.00
23303;BME280;11820;48.738;9.092;2022-08-19T07:39:46;95979.63;;;20.64;100.00
23303;BME280;11820;48.738;9.092;2022-08-19T07:42:12;95983.31;;;20.63;100.00
23303;BME280;11820;48.738;9.092;2022-08-19T07:44:39;95984.34;;;20.77;100.00
23303;BME280;11820;48.738;9.092;2022-08-19T07:47:05;95987.50;;;20.79;100.00
23303;BME280;11820;48.738;9.092;2022-08-19T07:49:31;95980.41;;;20.65;100.00
23303;BME280;11820;48.738;9.092;2022-08-19T07:51:59;95983.56;;;20.77;100.00
23303;BME280;11820;48.738;9.092;2022-08-19T07:54:29;95982.53;;;20.73;100.00
23303;BME280;11820;48.738;9.092;2022-08-19T07:56:56;95979.34;;;20.66;100.00
23303;BME280;11820;48.738;9.092;2022-08-19T07:59:22;95978.84;;;20.44;100.00
23303;BME280;11820;48.738;9.092;2022-08-19T08:01:49;95981.97;;;20.66;100.00
23303;BME280;11820;48.738;9.092;2022-08-19T08:04:16;95977.00;;;20.64;100.00
23303;BME280;11820;48.738;9.092;2022-08-19T08:07:00;95974.09;;;20.61;100.00
23303;BME280;11820;48.738;9.092;2022-08-19T08:09:44;95975.66;;;20.67;100.00
23303;BME280;11820;48.738;9.092;2022-08-19T08:12:22;95981.47;;;20.74;100.00
23303;BME280;11820;48.738;9.092;2022-08-19T08:14:53;95985.69;;;20.85;100.00
23303;BME280;11820;48.738;9.092;2022-08-19T08:17:26;95990.69;;;20.81;100.00
23303;BME280;11820;48.738;9.092;2022-08-19T08:19:53;95988.59;;;20.88;100.00
23303;BME280;11820;48.738;9.092;2022-08-19T08:22:20;95995.38;;;20.74;100.00
23303;BME280;11820;48.738;9.092;2022-08-19T08:25:07;95990.69;;;20.86;100.00
23303;BME280;11820;48.738;9.092;2022-08-19T08:27:40;95995.91;;;20.66;100.00
23303;BME280;11820;48.738;9.092;2022-08-19T08:30:09;95993.81;;;20.78;100.00
23303;BME280;11820;48.738;9.092;2022-08-19T08:32:37;95999.63;;;20.80;100.00
23303;BME280;11820;48.738;9.092;2022-08-19T08:35:09;95996.44;;;20.78;100.00
23303;BME280;11820;48.738;9.092;2022-08-19T08:37:35;95996.97;;;20.75;100.00
23303;BME280;11820;48.738;9.092;2022-08-19T08:40:18;95996.97;;;20.75;100.00
23303;BME280;11820;48.738;9.092;2022-08-19T08:42:53;95992.25;;;20.82;100.00
23303;BME280;11820;48.738;9.092;2022-08-19T08:45:21;95989.91;;;21.01;100.00
23303;BME280;11820;48.738;9.092;2022-08-19T08:47:50;95996.47;;;21.08;100.00
23303;BME280;11820;48.738;9.092;2022-08-19T08:50:41;95990.69;;;20.86;100.00
23303;BME280;11820;48.738;9.092;2022-08-19T08:53:08;95997.25;;;21.09;100.00
23303;BME280;11820;48.738;9.092;2022-08-19T08:55:36;95992.78;;;20.94;100.00
23303;BME280;11820;48.738;9.092;2022-08-19T08:58:05;95998.28;;;21.13;100.00
23303;BME280;11820;48.738;9.092;2022-08-19T09:00:38;95998.56;;;21.01;100.00
23303;BME280;11820;48.738;9.092;2022-08-19T09:03:20;95997.44;;;21.42;100.00
23303;BME280;11820;48.738;9.092;2022-08-19T09:05:59;95997.47;;;21.37;100.00
23303;BME280;11820;48.738;9.092;2022-08-19T09:11:16;95999.31;;;21.17;100.00
23303;BME280;11820;48.738;9.092;2022-08-19T09:14:39;96000.91;;;21.23;100.00
23303;BME280;11820;48.738;9.092;2022-08-19T09:16:45;95997.72;;;21.36;100.00
23303;BME280;11820;48.738;9.092;2022-08-19T09:19:10;96006.66;;;21.35;100.00
23303;BME280;11820;48.738;9.092;2022-08-19T09:21:36;96006.97;;;21.13;100.00
23303;BME280;11820;48.738;9.092;2022-08-19T09:24:02;96015.94;;;21.07;100.00
23303;BME280;11820;48.738;9.092;2022-08-19T09:26:28;96013.25;;;21.27;100.00
23303;BME280;11820;48.738;9.092;2022-08-19T09:28:54;96014.31;;;21.21;100.00
23303;BME280;11820;48.738;9.092;2022-08-19T09:31:22;96004.31;;;21.28;100.00
23303;BME280;11820;48.738;9.092;2022-08-19T09:33:49;96009.59;;;21.23;100.00
23303;BME280;11820;48.738;9.092;2022-08-19T09:36:16;96012.75;;;21.20;100.00
23303;BME280;11820;48.738;9.092;2022-08-19T09:38:43;96015.38;;;21.15;100.00
23303;BME280;11820;48.738;9.092;2022-08-19T09:41:15;96015.38;;;21.25;100.00
23303;BME280;11820;48.738;9.092;2022-08-19T09:43:43;96012.22;;;21.23;100.00
23303;BME280;11820;48.738;9.092;2022-08-19T09:46:09;96013.50;;;21.36;100.00
23303;BME280;11820;48.738;9.092;2022-08-19T09:48:36;96019.56;;;21.36;100.00
23303;BME280;11820;48.738;9.092;2022-08-19T09:51:10;96017.69;;;21.41;100.00
23303;BME280;11820;48.738;9.092;2022-08-19T09:53:37;96026.69;;;21.26;100.00
23303;BME280;11820;48.738;9.092;2022-08-19T09:56:04;96025.91;;;21.35;100.00
23303;BME280;11820;48.738;9.092;2022-08-19T09:58:30;96022.75;;;21.33;100.00
23303;BME280;11820;48.738;9.092;2022-08-19T10:01:00;96022.69;;;21.48;100.00
23303;BME280;11820;48.738;9.092;2022-08-19T10:03:27;96019.03;;;21.39;100.00
23303;BME280;11820;48.738;9.092;2022-08-19T10:05:53;96018.50;;;21.42;100.00
23303;BME280;11820;48.738;9.092;2022-08-19T10:08:22;96014.50;;;21.59;100.00
23303;BME280;11820;48.738;9.092;2022-08-19T10:10:48;96026.34;;;21.72;100.00
23303;BME280;11820;48.738;9.092;2022-08-19T10:13:16;96018.41;;;21.77;100.00
23303;BME280;11820;48.738;9.092;2022-08-19T10:15:42;96027.97;;;21.63;100.00
23303;BME280;11820;48.738;9.092;2022-08-19T10:18:08;96023.19;;;21.55;100.00
23303;BME280;11820;48.738;9.092;2022-08-19T10:20:33;96026.91;;;21.49;100.00
23303;BME280;11820;48.738;9.092;2022-08-19T10:23:01;96023.19;;;21.55;100.00
23303;BME280;11820;48.738;9.092;2022-08-19T10:25:27;96019.25;;;21.62;100.00
23303;BME280;11820;48.738;9.092;2022-08-19T10:27:53;96021.38;;;21.55;100.00
23303;BME280;11820;48.738;9.092;2022-08-19T10:30:18;96023.19;;;21.70;100.00
23303;BME280;11820;48.738;9.092;2022-08-19T10:32:44;96018.44;;;21.72;100.00
23303;BME280;11820;48.738;9.092;2022-08-19T10:35:11;96020.56;;;21.70;100.00
23303;BME280;11820;48.738;9.092;2022-08-19T10:37:38;96023.66;;;21.82;100.00
23303;BME280;11820;48.738;9.092;2022-08-19T10:40:06;96018.16;;;21.78;100.00
23303;BME280;11820;48.738;9.092;2022-08-19T10:42:33;96007.31;;;21.90;100.00
23303;BME280;11820;48.738;9.092;2022-08-19T10:44:59;96006.84;;;21.83;100.00
23303;BME280;11820;48.738;9.092;2022-08-19T10:47:24;96007.91;;;21.72;100.00
23303;BME280;11820;48.738;9.092;2022-08-19T10:49:49;96005.78;;;21.74;100.00
23303;BME280;11820;48.738;9.092;2022-08-19T10:52:33;96004.16;;;21.93;100.00
23303;BME280;11820;48.738;9.092;2022-08-19T10:55:03;95999.91;;;21.97;100.00
23303;BME280;11820;48.738;9.092;2022-08-19T10:57:48;96009.38;;;21.98;100.00
23303;BME280;11820;48.738;9.092;2022-08-19T11:00:14;96004.59;;;22.10;100.00
23303;BME280;11820;48.738;9.092;2022-08-19T11:02:40;96005.63;;;22.14;100.00
23303;BME280;11820;48.738;9.092;2022-08-19T11:05:07;96013.97;;;22.26;100.00
23303;BME280;11820;48.738;9.092;2022-08-19T11:07:34;96015.53;;;22.37;100.00
23303;BME280;11820;48.738;9.092;2022-08-19T11:10:00;96011.56;;;22.39;100.00
23303;BME280;11820;48.738;9.092;2022-08-19T11:12:26;96003.53;;;22.59;100.00
23303;BME280;11820;48.738;9.092;2022-08-19T11:14:52;96001.31;;;22.38;100.00
23303;BME280;11820;48.738;9.092;2022-08-19T11:17:18;96001.31;;;22.38;100.00
23303;BME280;11820;48.738;9.092;2022-08-19T11:19:43;96004.41;;;22.45;100.00
23303;BME280;11820;48.738;9.092;2022-08-19T11:22:09;96000.47;;;22.47;100.00
23303;BME280;11820;48.738;9.092;2022-08-19T11:24:35;96000.69;;;22.51;100.00
23303;BME280;11820;48.738;9.092;2022-08-19T11:27:07;96002.81;;;22.49;100.00
23303;BME280;11820;48.738;9.092;2022-08-19T11:29:34;95992.81;;;22.46;100.00
23303;BME280;11820;48.738;9.092;2022-08-19T11:32:05;95996.81;;;22.38;100.00
23303;BME280;11820;48.738;9.092;2022-08-19T11:34:30;96004.66;;;22.48;100.00
23303;BME280;11820;48.738;9.092;2022-08-19T11:36:56;95999.91;;;22.50;100.00
23303;BME280;11820;48.738;9.092;2022-08-19T11:39:25;96003.28;;;22.56;100.00
23303;BME280;11820;48.738;9.092;2022-08-19T11:41:50;96004.56;;;22.63;100.00
23303;BME280;11820;48.738;9.092;2022-08-19T11:44:16;96000.84;;;22.64;100.00
23303;BME280;11820;48.738;9.092;2022-08-19T11:46:43;95995.88;;;22.63;100.00
23303;BME280;11820;48.738;9.092;2022-08-19T11:49:15;95996.34;;;22.70;100.00
23303;BME280;11820;48.738;9.092;2022-08-19T11:51:42;96004.16;;;22.80;100.00
23303;BME280;11820;48.738;9.092;2022-08-19T11:54:09;96008.88;;;22.83;100.00
23303;BME280;11820;48.738;9.092;2022-08-19T11:56:36;96004.97;;;22.80;100.00
23303;BME280;11820;48.738;9.092;2022-08-19T11:59:02;96006.25;;;22.83;100.00
23303;BME280;11820;48.738;9.092;2022-08-19T12:01:27;95999.38;;;22.87;100.00
23303;BME280;11820;48.738;9.092;2022-08-19T12:03:54;95996.13;;;22.95;100.00
23303;BME280;11820;48.738;9.092;2022-08-19T12:06:24;95998.38;;;23.11;100.00
23303;BME280;11820;48.738;9.092;2022-08-19T12:08:52;95988.84;;;23.15;100.00
23303;BME280;11820;48.738;9.092;2022-08-19T12:11:18;95984.31;;;23.20;100.00
23303;BME280;11820;48.738;9.092;2022-08-19T12:13:44;95988.72;;;23.30;100.00
23303;BME280;11820;48.738;9.092;2022-08-19T12:16:20;95990.59;;;23.24;100.00
23303;BME280;11820;48.738;9.092;2022-08-19T12:18:46;95995.38;;;23.22;100.00
23303;BME280;11820;48.738;9.092;2022-08-19T12:21:15;95993.34;;;23.15;100.00
23303;BME280;11820;48.738;9.092;2022-08-19T12:23:43;95991.28;;;23.12;100.00
23303;BME280;11820;48.738;9.092;2022-08-19T12:26:10;95994.41;;;23.14;100.00
23303;BME280;11820;48.738;9.092;2022-08-19T12:28:35;95992.28;;;23.16;100.00
23303;BME280;11820;48.738;9.092;2022-08-19T12:31:01;95997.03;;;23.08;100.00
23303;BME280;11820;48.738;9.092;2022-08-19T12:33:26;95996.50;;;23.17;100.00
23303;BME280;11820;48.738;9.092;2022-08-19T12:35:53;95994.38;;;23.18;100.00
23303;BME280;11820;48.738;9.092;2022-08-19T12:38:19;95989.59;;;23.20;100.00
23303;BME280;11820;48.738;9.092;2022-08-19T12:40:46;95993.25;;;23.24;100.00
23303;BME280;11820;48.738;9.092;2022-08-19T12:43:12;95987.34;;;23.32;100.00
23303;BME280;11820;48.738;9.092;2022-08-19T12:45:39;95996.56;;;23.35;100.00
23303;BME280;11820;48.738;9.092;2022-08-19T12:48:04;95992.19;;;23.25;100.00
23303;BME280;11820;48.738;9.092;2022-08-19T12:50:29;95994.81;;;23.25;100.00
23303;BME280;11820;48.738;9.092;2022-08-19T12:52:56;95987.00;;;23.16;100.00
23303;BME280;11820;48.738;9.092;2022-08-19T12:55:21;95985.44;;;23.15;100.00
23303;BME280;11820;48.738;9.092;2022-08-19T12:57:47;95987.78;;;23.16;100.00
23303;BME280;11820;48.738;9.092;2022-08-19T13:00:17;95996.75;;;23.15;100.00
23303;BME280;11820;48.738;9.092;2022-08-19T13:02:44;95996.25;;;23.13;100.00
23303;BME280;11820;48.738;9.092;2022-08-19T13:05:13;96007.09;;;23.12;100.00